Leli — HP6679 — position and weather

sailwx.info

Track history (hours):
 
Tides and Currents Weather Stations Pressure Air Temp Water Temp Dewpoint Dewpoint Depression Visibility Wind Speed Wind Dir Waves Ship Positions

Leli

Last reported at 2018-Apr-21 02:00 UTC. Time now 2018-Apr-21 02:13 UTC.
Position N 35°56' W 005°21'.

Length 96 m; draft 6.7 m.

Type: Tanker. MMSI: 356122000.

Date/timePositionNaut miles runAvg speedWind from/ knotsBaromVisibWave heightAir tempDewpointWater temp
2018-Apr-21 02:00N 35°56' W 005°21'0 0.4
2018-Apr-21 01:28N 35°55' W 005°21'0 0.2
2018-Apr-21 00:59N 35°56' W 005°21'0 0.0
2018-Apr-21 00:30N 35°56' W 005°21'0 0.1
2018-Apr-20 23:59N 35°56' W 005°21'0 0.4
2018-Apr-20 23:28N 35°56' W 005°21'0 0.3
2018-Apr-20 22:59N 35°56' W 005°22'0 0.1
2018-Apr-20 22:26N 35°56' W 005°22'0 0.2
2018-Apr-20 21:59N 35°56' W 005°22'0 0.4
2018-Apr-20 21:30N 35°56' W 005°21'0 0.3
2018-Apr-20 21:00N 35°56' W 005°21'0 0.0
2018-Apr-20 20:30N 35°56' W 005°21'0 0.3
2018-Apr-20 20:00N 35°56' W 005°21'0 0.1
2018-Apr-20 19:30N 35°56' W 005°21'0 0.9
2018-Apr-20 19:00N 35°56' W 005°21'0 0.2
2018-Apr-20 18:30N 35°55' W 005°21'0 0.0
2018-Apr-20 18:01N 35°55' W 005°21'2 4.9
2018-Apr-20 17:30N 35°54' W 005°18'1 1.5
2018-Apr-20 17:00N 35°55' W 005°19'2 4.8
2018-Apr-20 16:30N 35°57' W 005°20'3 6.5
2018-Apr-20 16:00N 35°58' W 005°24'510.0
2018-Apr-20 15:30N 35°57' W 005°30'248 6.6
2018-Apr-19 01:58N 38°01' W 009°58'510.8
2018-Apr-19 01:30N 38°06' W 010°00'510.8
2018-Apr-19 01:01N 38°11' W 010°02'510.8
2018-Apr-19 00:30N 38°17' W 010°04'611.0
2018-Apr-19 00:00N 38°22' W 010°05'611.1
2018-Apr-18 23:30N 38°27' W 010°07'611.2
2018-Apr-18 23:00N 38°33' W 010°09'611.0
2018-Apr-18 22:30N 38°38' W 010°11'610.9
2018-Apr-18 22:00N 38°44' W 010°11'611.4
2018-Apr-18 21:30N 38°49' W 010°11'611.7
2018-Apr-18 21:00N 38°55' W 010°12'611.6
2018-Apr-18 20:30N 39°01' W 010°12'611.4
2018-Apr-18 20:01N 39°07' W 010°12'611.2
2018-Apr-18 19:30N 39°12' W 010°12'510.7
2018-Apr-18 19:00N 39°18' W 010°12'510.9
2018-Apr-18 18:30N 39°23' W 010°11'510.8
2018-Apr-18 18:01N 39°28' W 010°11'510.9
2018-Apr-18 17:30N 39°34' W 010°12'911.0
2018-Apr-18 16:40N 39°43' W 010°12'1111.0
2018-Apr-18 15:38N 39°55' W 010°12'211.1
2018-Apr-18 15:24N 39°57' W 010°12'293 6.7
2018-Apr-16 19:33N 43°48' W 006°09'211.4
2018-Apr-16 19:21N 43°48' W 006°06'511.6
2018-Apr-16 18:58N 43°47' W 005°60'611.6
2018-Apr-16 18:29N 43°47' W 005°52'611.6
2018-Apr-16 18:00N 43°47' W 005°44'711.8
2018-Apr-16 17:22N 43°47' W 005°34'411.7
2018-Apr-16 17:00N 43°47' W 005°28'711.5
2018-Apr-16 16:26N 43°46' W 005°19'511.6
2018-Apr-16 16:00N 43°45' W 005°12'  
2018-Apr-14 03:48N 47°51' W 005°47'1211.4
2018-Apr-14 02:43N 48°03' W 005°53'1110.8
2018-Apr-14 01:43N 48°13' W 005°58'1010.4
2018-Apr-14 00:43N 48°23' W 006°03'3310.3
2018-Apr-13 21:34N 48°53' W 005°46'12111.3
2018-Apr-13 10:51N 49°55' W 003°07'412.5
2018-Apr-13 10:30N 49°58' W 003°02'612.1
2018-Apr-13 10:00N 50°00' W 002°53'611.8
2018-Apr-13 09:29N 50°02' W 002°44'2911.0
2018-Apr-13 06:50N 50°10' W 002°00'4 9.6
2018-Apr-13 06:27N 50°11' W 001°55'4 9.4
2018-Apr-13 06:00N 50°12' W 001°48'5 9.4
2018-Apr-13 05:30N 50°13' W 001°41'5 9.8
2018-Apr-13 05:00N 50°14' W 001°34'510.3
2018-Apr-13 04:30N 50°16' W 001°26'510.9
2018-Apr-13 04:00N 50°18' W 001°18'3513.1
2018-Apr-13 01:21N 50°26' W 000°26'513.5
2018-Apr-13 01:01N 50°27' W 000°18'713.2
2018-Apr-13 00:30N 50°29' W 000°08'613.1
2018-Apr-13 00:00N 50°31' E 000°02'713.0
2018-Apr-12 23:30N 50°32' E 000°11'712.8
2018-Apr-12 23:00N 50°34' E 000°22'612.4
2018-Apr-12 22:31N 50°35' E 000°31'611.9
2018-Apr-12 22:00N 50°38' E 000°39'611.6
2018-Apr-12 21:31N 50°41' E 000°47'611.4
2018-Apr-12 21:01N 50°44' E 000°54'611.2
2018-Apr-12 20:30N 50°48' E 001°01'2211.9
2018-Apr-12 18:41N 51°03' E 001°25'313.9
2018-Apr-12 18:30N 51°05' E 001°28'714.4
2018-Apr-12 18:01N 51°09' E 001°37'714.3
2018-Apr-12 17:31N 51°14' E 001°45'714.3
2018-Apr-12 17:01N 51°21' E 001°50'713.6
2018-Apr-12 16:30N 51°27' E 001°55'612.9
2018-Apr-12 16:01N 51°32' E 002°01'612.4
2018-Apr-12 15:30N 51°37' E 002°08'611.6
2018-Apr-12 15:00N 51°41' E 002°14'611.9
2018-Apr-12 14:30N 51°45' E 002°21'3310.3
2018-Apr-12 11:20N 52°03' E 003°05'410.7
2018-Apr-12 10:56N 52°03' E 003°12'510.8
2018-Apr-12 10:26N 52°03' E 003°21'511.0
2018-Apr-12 09:56N 52°04' E 003°30'511.5
2018-Apr-12 09:29N 52°03' E 003°38'612.4
2018-Apr-12 09:00N 52°02' E 003°48'5 9.9
2018-Apr-12 08:30N 51°58' E 003°45'1 0.6
2018-Apr-12 07:31N 51°57' E 003°46'0 0.1
2018-Apr-12 07:22N 51°57' E 003°46'0 0.0
2018-Apr-12 06:58N 51°57' E 003°46'0 0.0
2018-Apr-12 06:28N 51°57' E 003°46'0 0.0
2018-Apr-12 05:55N 51°57' E 003°46'0 0.0
2018-Apr-12 05:28N 51°57' E 003°46'0 0.0
2018-Apr-12 04:46N 51°57' E 003°46'0 0.0
2018-Apr-12 04:28N 51°57' E 003°46'0 0.0
2018-Apr-12 03:55N 51°57' E 003°46'0 0.0
2018-Apr-12 03:25N 51°57' E 003°46'0 0.0
2018-Apr-12 02:55N 51°57' E 003°46'0 0.1
2018-Apr-12 02:19N 51°57' E 003°46'0 0.1
2018-Apr-12 01:58N 51°57' E 003°46'0 0.0
2018-Apr-12 01:25N 51°57' E 003°46'0 0.0
2018-Apr-12 00:58N 51°57' E 003°46'0 0.0
2018-Apr-12 00:25N 51°57' E 003°46'0 0.0
2018-Apr-11 23:58N 51°57' E 003°46'0 0.0
2018-Apr-11 23:28N 51°57' E 003°46'0 0.0
2018-Apr-11 22:58N 51°57' E 003°46'0 0.0
2018-Apr-11 22:25N 51°57' E 003°46'0 0.0
2018-Apr-11 21:52N 51°57' E 003°46'0 0.1
2018-Apr-11 21:28N 51°57' E 003°46'0 0.1
2018-Apr-11 20:52N 51°57' E 003°46'0 0.2
2018-Apr-11 20:25N 51°57' E 003°46'0 0.1
2018-Apr-11 19:49N 51°57' E 003°46'0 0.0
2018-Apr-11 19:10N 51°57' E 003°46'0 0.0
2018-Apr-11 18:46N 51°57' E 003°46'0 0.0
2018-Apr-11 18:28N 51°57' E 003°46'0 0.0
2018-Apr-11 17:49N 51°57' E 003°46'0 0.0
2018-Apr-11 17:28N 51°57' E 003°46'0 0.0
2018-Apr-11 16:49N 51°57' E 003°46'0 0.0
2018-Apr-11 16:22N 51°57' E 003°46'0 0.0
2018-Apr-11 15:58N 51°57' E 003°46'0 0.0
2018-Apr-11 15:28N 51°57' E 003°46'0 0.0
2018-Apr-11 14:01N 51°57' E 003°46'0 0.1
2018-Apr-11 13:58N 51°57' E 003°46'0 0.1
2018-Apr-11 13:22N 51°57' E 003°46'0 0.0
2018-Apr-11 12:58N 51°57' E 003°46'0 0.0
2018-Apr-11 12:28N 51°57' E 003°46'0 0.0
2018-Apr-11 11:58N 51°57' E 003°46'0 0.0
2018-Apr-11 11:28N 51°57' E 003°46'0 0.0
2018-Apr-11 10:52N 51°57' E 003°46'0 0.0
2018-Apr-11 10:28N 51°57' E 003°46'0 0.0
2018-Apr-11 09:49N 51°57' E 003°46'0 0.0
2018-Apr-11 09:28N 51°57' E 003°46'0 0.1
2018-Apr-11 08:58N 51°57' E 003°46'0 0.1
2018-Apr-11 08:13N 51°57' E 003°46'0 0.0
2018-Apr-11 07:58N 51°57' E 003°46'0 0.0
2018-Apr-11 07:19N 51°57' E 003°46'0 0.0
2018-Apr-11 06:55N 51°57' E 003°46'0 0.0
2018-Apr-11 06:28N 51°57' E 003°46'0 0.0
2018-Apr-11 05:58N 51°57' E 003°46'0 0.0
2018-Apr-11 05:19N 51°57' E 003°46'0 0.0
2018-Apr-11 04:55N 51°57' E 003°46'0 0.0
2018-Apr-11 04:28N 51°57' E 003°46'0 0.0
2018-Apr-11 03:58N 51°57' E 003°46'0 0.1
2018-Apr-11 03:04N 51°57' E 003°46'0 0.1
2018-Apr-11 02:58N 51°57' E 003°46'0 0.0
2018-Apr-11 02:28N 51°57' E 003°46'  
Track history (hours):
 
Tides and Currents Weather Stations Pressure Air Temp Water Temp Dewpoint Dewpoint Depression Visibility Wind Speed Wind Dir Waves Ship Positions

Leli

Last reported at 2018-Apr-21 02:00 UTC. Time now 2018-Apr-21 02:13 UTC.
Position N 35°56' W 005°21'.

Length 96 m; draft 6.7 m.

Type: Tanker. MMSI: 356122000.

Date/timePositionNaut miles runAvg speedWind from/ knotsBaromVisibWave heightAir tempDewpointWater temp
2018-Apr-21 02:00N 35°56' W 005°21'0 0.4
2018-Apr-21 01:28N 35°55' W 005°21'0 0.2
2018-Apr-21 00:59N 35°56' W 005°21'0 0.0
2018-Apr-21 00:30N 35°56' W 005°21'0 0.1
2018-Apr-20 23:59N 35°56' W 005°21'0 0.4
2018-Apr-20 23:28N 35°56' W 005°21'0 0.3
2018-Apr-20 22:59N 35°56' W 005°22'0 0.1
2018-Apr-20 22:26N 35°56' W 005°22'0 0.2
2018-Apr-20 21:59N 35°56' W 005°22'0 0.4
2018-Apr-20 21:30N 35°56' W 005°21'0 0.3
2018-Apr-20 21:00N 35°56' W 005°21'0 0.0
2018-Apr-20 20:30N 35°56' W 005°21'0 0.3
2018-Apr-20 20:00N 35°56' W 005°21'0 0.1
2018-Apr-20 19:30N 35°56' W 005°21'0 0.9
2018-Apr-20 19:00N 35°56' W 005°21'0 0.2
2018-Apr-20 18:30N 35°55' W 005°21'0 0.0
2018-Apr-20 18:01N 35°55' W 005°21'2 4.9
2018-Apr-20 17:30N 35°54' W 005°18'1 1.5
2018-Apr-20 17:00N 35°55' W 005°19'2 4.8
2018-Apr-20 16:30N 35°57' W 005°20'3 6.5
2018-Apr-20 16:00N 35°58' W 005°24'510.0
2018-Apr-20 15:30N 35°57' W 005°30'248 6.6
2018-Apr-19 01:58N 38°01' W 009°58'510.8
2018-Apr-19 01:30N 38°06' W 010°00'510.8
2018-Apr-19 01:01N 38°11' W 010°02'510.8
2018-Apr-19 00:30N 38°17' W 010°04'611.0
2018-Apr-19 00:00N 38°22' W 010°05'611.1
2018-Apr-18 23:30N 38°27' W 010°07'611.2
2018-Apr-18 23:00N 38°33' W 010°09'611.0
2018-Apr-18 22:30N 38°38' W 010°11'610.9
2018-Apr-18 22:00N 38°44' W 010°11'611.4
2018-Apr-18 21:30N 38°49' W 010°11'611.7
2018-Apr-18 21:00N 38°55' W 010°12'611.6
2018-Apr-18 20:30N 39°01' W 010°12'611.4
2018-Apr-18 20:01N 39°07' W 010°12'611.2
2018-Apr-18 19:30N 39°12' W 010°12'510.7
2018-Apr-18 19:00N 39°18' W 010°12'510.9
2018-Apr-18 18:30N 39°23' W 010°11'510.8
2018-Apr-18 18:01N 39°28' W 010°11'510.9
2018-Apr-18 17:30N 39°34' W 010°12'911.0
2018-Apr-18 16:40N 39°43' W 010°12'1111.0
2018-Apr-18 15:38N 39°55' W 010°12'211.1
2018-Apr-18 15:24N 39°57' W 010°12'293 6.7
2018-Apr-16 19:33N 43°48' W 006°09'211.4
2018-Apr-16 19:21N 43°48' W 006°06'511.6
2018-Apr-16 18:58N 43°47' W 005°60'611.6
2018-Apr-16 18:29N 43°47' W 005°52'611.6
2018-Apr-16 18:00N 43°47' W 005°44'711.8
2018-Apr-16 17:22N 43°47' W 005°34'411.7
2018-Apr-16 17:00N 43°47' W 005°28'711.5
2018-Apr-16 16:26N 43°46' W 005°19'511.6
2018-Apr-16 16:00N 43°45' W 005°12'  
2018-Apr-14 03:48N 47°51' W 005°47'1211.4
2018-Apr-14 02:43N 48°03' W 005°53'1110.8
2018-Apr-14 01:43N 48°13' W 005°58'1010.4
2018-Apr-14 00:43N 48°23' W 006°03'3310.3
2018-Apr-13 21:34N 48°53' W 005°46'12111.3
2018-Apr-13 10:51N 49°55' W 003°07'412.5
2018-Apr-13 10:30N 49°58' W 003°02'612.1
2018-Apr-13 10:00N 50°00' W 002°53'611.8
2018-Apr-13 09:29N 50°02' W 002°44'2911.0
2018-Apr-13 06:50N 50°10' W 002°00'4 9.6
2018-Apr-13 06:27N 50°11' W 001°55'4 9.4
2018-Apr-13 06:00N 50°12' W 001°48'5 9.4
2018-Apr-13 05:30N 50°13' W 001°41'5 9.8
2018-Apr-13 05:00N 50°14' W 001°34'510.3
2018-Apr-13 04:30N 50°16' W 001°26'510.9
2018-Apr-13 04:00N 50°18' W 001°18'3513.1
2018-Apr-13 01:21N 50°26' W 000°26'513.5
2018-Apr-13 01:01N 50°27' W 000°18'713.2
2018-Apr-13 00:30N 50°29' W 000°08'613.1
2018-Apr-13 00:00N 50°31' E 000°02'713.0
2018-Apr-12 23:30N 50°32' E 000°11'712.8
2018-Apr-12 23:00N 50°34' E 000°22'612.4
2018-Apr-12 22:31N 50°35' E 000°31'611.9
2018-Apr-12 22:00N 50°38' E 000°39'611.6
2018-Apr-12 21:31N 50°41' E 000°47'611.4
2018-Apr-12 21:01N 50°44' E 000°54'611.2
2018-Apr-12 20:30N 50°48' E 001°01'2211.9
2018-Apr-12 18:41N 51°03' E 001°25'313.9
2018-Apr-12 18:30N 51°05' E 001°28'714.4
2018-Apr-12 18:01N 51°09' E 001°37'714.3
2018-Apr-12 17:31N 51°14' E 001°45'714.3
2018-Apr-12 17:01N 51°21' E 001°50'713.6
2018-Apr-12 16:30N 51°27' E 001°55'612.9
2018-Apr-12 16:01N 51°32' E 002°01'612.4
2018-Apr-12 15:30N 51°37' E 002°08'611.6
2018-Apr-12 15:00N 51°41' E 002°14'611.9
2018-Apr-12 14:30N 51°45' E 002°21'3310.3
2018-Apr-12 11:20N 52°03' E 003°05'410.7
2018-Apr-12 10:56N 52°03' E 003°12'510.8
2018-Apr-12 10:26N 52°03' E 003°21'511.0
2018-Apr-12 09:56N 52°04' E 003°30'511.5
2018-Apr-12 09:29N 52°03' E 003°38'612.4
2018-Apr-12 09:00N 52°02' E 003°48'5 9.9
2018-Apr-12 08:30N 51°58' E 003°45'1 0.6
2018-Apr-12 07:31N 51°57' E 003°46'0 0.1
2018-Apr-12 07:22N 51°57' E 003°46'0 0.0
2018-Apr-12 06:58N 51°57' E 003°46'0 0.0
2018-Apr-12 06:28N 51°57' E 003°46'0 0.0
2018-Apr-12 05:55N 51°57' E 003°46'0 0.0
2018-Apr-12 05:28N 51°57' E 003°46'0 0.0
2018-Apr-12 04:46N 51°57' E 003°46'0 0.0
2018-Apr-12 04:28N 51°57' E 003°46'0 0.0
2018-Apr-12 03:55N 51°57' E 003°46'0 0.0
2018-Apr-12 03:25N 51°57' E 003°46'0 0.0
2018-Apr-12 02:55N 51°57' E 003°46'0 0.1
2018-Apr-12 02:19N 51°57' E 003°46'0 0.1
2018-Apr-12 01:58N 51°57' E 003°46'0 0.0
2018-Apr-12 01:25N 51°57' E 003°46'0 0.0
2018-Apr-12 00:58N 51°57' E 003°46'0 0.0
2018-Apr-12 00:25N 51°57' E 003°46'0 0.0
2018-Apr-11 23:58N 51°57' E 003°46'0 0.0
2018-Apr-11 23:28N 51°57' E 003°46'0 0.0
2018-Apr-11 22:58N 51°57' E 003°46'0 0.0
2018-Apr-11 22:25N 51°57' E 003°46'0 0.0
2018-Apr-11 21:52N 51°57' E 003°46'0 0.1
2018-Apr-11 21:28N 51°57' E 003°46'0 0.1
2018-Apr-11 20:52N 51°57' E 003°46'0 0.2
2018-Apr-11 20:25N 51°57' E 003°46'0 0.1
2018-Apr-11 19:49N 51°57' E 003°46'0 0.0
2018-Apr-11 19:10N 51°57' E 003°46'0 0.0
2018-Apr-11 18:46N 51°57' E 003°46'0 0.0
2018-Apr-11 18:28N 51°57' E 003°46'0 0.0
2018-Apr-11 17:49N 51°57' E 003°46'0 0.0
2018-Apr-11 17:28N 51°57' E 003°46'0 0.0
2018-Apr-11 16:49N 51°57' E 003°46'0 0.0
2018-Apr-11 16:22N 51°57' E 003°46'0 0.0
2018-Apr-11 15:58N 51°57' E 003°46'0 0.0
2018-Apr-11 15:28N 51°57' E 003°46'0 0.0
2018-Apr-11 14:01N 51°57' E 003°46'0 0.1
2018-Apr-11 13:58N 51°57' E 003°46'0 0.1
2018-Apr-11 13:22N 51°57' E 003°46'0 0.0
2018-Apr-11 12:58N 51°57' E 003°46'0 0.0
2018-Apr-11 12:28N 51°57' E 003°46'0 0.0
2018-Apr-11 11:58N 51°57' E 003°46'0 0.0
2018-Apr-11 11:28N 51°57' E 003°46'0 0.0
2018-Apr-11 10:52N 51°57' E 003°46'0 0.0
2018-Apr-11 10:28N 51°57' E 003°46'0 0.0
2018-Apr-11 09:49N 51°57' E 003°46'0 0.0
2018-Apr-11 09:28N 51°57' E 003°46'0 0.1
2018-Apr-11 08:58N 51°57' E 003°46'0 0.1
2018-Apr-11 08:13N 51°57' E 003°46'0 0.0
2018-Apr-11 07:58N 51°57' E 003°46'0 0.0
2018-Apr-11 07:19N 51°57' E 003°46'0 0.0
2018-Apr-11 06:55N 51°57' E 003°46'0 0.0
2018-Apr-11 06:28N 51°57' E 003°46'0 0.0
2018-Apr-11 05:58N 51°57' E 003°46'0 0.0
2018-Apr-11 05:19N 51°57' E 003°46'0 0.0
2018-Apr-11 04:55N 51°57' E 003°46'0 0.0
2018-Apr-11 04:28N 51°57' E 003°46'0 0.0
2018-Apr-11 03:58N 51°57' E 003°46'0 0.1
2018-Apr-11 03:04N 51°57' E 003°46'0 0.1
2018-Apr-11 02:58N 51°57' E 003°46'0 0.0
2018-Apr-11 02:28N 51°57' E 003°46'  

Dump ship's entire track history